Terminal Aerodrome Forecast
Issued by NWS

Home | Current Version | Previous Version | Graphics & Text | Print | Product List | Glossary On
Versions: 1 2 3 4 5 6 7 8 9 10 11 12 13 14
000
FTUS43 KICT 270500
TAFCNU
TAF
KCNU 270520Z 2706/2806 12007KT P6SM SCT100 BKN200
     FM271700 16011KT P6SM SCT060 SCT250
     FM280300 13006KT P6SM BKN250=

USA.gov is the U.S. government's official web portal to all federal, state and local government web resources and services.